Time;durP1;ratioP1;P1;durP2;ratioP2;P2;SDS_P1;SDS_P2;PMS_P1;PMS_P2;Temp;Humidity;BMP_temperature;BMP_pressure;BME280_temperature;BME280_humidity;BME280_pressure;Samples;Min_cycle;Max_cycle;Signal;HPM_P1;HPM_P2
2023/05/26 00:00:17;;;;;;;11.90;4.80;;;16.00;91.90;;;;;;4210727;28;20044;-55
2023/05/26 00:02:20;;;;;;;15.48;4.70;;;16.00;91.80;;;;;;4212890;28;20090;-55
2023/05/26 00:04:24;;;;;;;14.18;4.78;;;16.00;91.90;;;;;;4203033;28;20043;-55
2023/05/26 00:06:31;;;;;;;9.68;5.20;;;15.90;92.00;;;;;;4213778;28;20050;-55
2023/05/26 00:08:33;;;;;;;15.13;5.15;;;15.90;92.10;;;;;;4205281;28;20307;-54
2023/05/26 00:10:35;;;;;;;13.85;5.30;;;15.90;92.10;;;;;;4210176;28;20122;-55
2023/05/26 00:12:38;;;;;;;12.82;5.15;;;15.90;92.20;;;;;;4212557;28;20060;-55
2023/05/26 00:14:40;;;;;;;15.48;5.15;;;15.80;92.20;;;;;;4202780;28;20078;-58
2023/05/26 00:16:42;;;;;;;11.70;5.40;;;15.80;92.30;;;;;;4213455;28;20040;-58
2023/05/26 00:18:45;;;;;;;14.30;4.55;;;15.70;92.40;;;;;;4206550;28;20052;-57
2023/05/26 00:20:48;;;;;;;18.42;5.70;;;15.80;92.50;;;;;;4210349;28;20093;-58
2023/05/26 00:22:50;;;;;;;13.77;4.90;;;15.70;92.50;;;;;;4213608;28;20056;-58
2023/05/26 00:24:53;;;;;;;15.40;5.85;;;15.70;92.60;;;;;;4206788;28;20044;-59
2023/05/26 00:26:55;;;;;;;13.73;5.72;;;15.70;92.60;;;;;;4213634;28;20044;-65
2023/05/26 00:28:57;;;;;;;15.88;6.05;;;15.70;92.70;;;;;;4208176;28;20049;-58
2023/05/26 00:30:59;;;;;;;12.25;5.85;;;15.70;92.70;;;;;;4190391;28;20072;-57
2023/05/26 00:33:02;;;;;;;19.40;6.20;;;15.60;92.80;;;;;;4196645;28;20052;-55
2023/05/26 00:35:07;;;;;;;17.60;5.85;;;15.60;92.90;;;;;;4199521;28;20055;-56
2023/05/26 00:37:10;;;;;;;17.05;6.68;;;15.60;93.00;;;;;;4196962;28;20064;-62
2023/05/26 00:39:13;;;;;;;13.30;6.53;;;15.60;93.10;;;;;;4207546;28;20078;-62
2023/05/26 00:41:15;;;;;;;17.65;6.47;;;15.50;93.30;;;;;;4210282;28;20444;-58
2023/05/26 00:43:20;;;;;;;18.45;6.47;;;15.40;93.30;;;;;;4216048;28;20142;-58
2023/05/26 00:45:22;;;;;;;15.50;6.18;;;15.40;93.40;;;;;;4202218;28;20071;-58
2023/05/26 00:47:25;;;;;;;16.45;6.10;;;15.40;93.60;;;;;;4213210;28;20100;-58
2023/05/26 00:49:27;;;;;;;14.70;6.43;;;15.40;93.60;;;;;;4209111;28;20402;-57
2023/05/26 00:51:29;;;;;;;15.57;6.40;;;15.40;93.50;;;;;;4206024;28;20075;-55
2023/05/26 00:53:34;;;;;;;22.00;7.72;;;15.40;93.50;;;;;;4214270;28;20048;-55
2023/05/26 00:55:38;;;;;;;14.25;6.65;;;15.40;93.50;;;;;;4183432;28;20059;-55
2023/05/26 00:57:40;;;;;;;17.70;6.68;;;15.30;93.60;;;;;;4212743;28;20085;-61
2023/05/26 00:59:43;;;;;;;15.77;6.80;;;15.40;93.70;;;;;;4209715;28;20102;-55
2023/05/26 01:01:45;;;;;;;18.38;7.40;;;15.30;93.60;;;;;;4206254;28;20055;-54
2023/05/26 01:03:47;;;;;;;15.07;7.40;;;15.30;93.70;;;;;;4210375;28;20050;-55
2023/05/26 01:05:49;;;;;;;16.63;6.55;;;15.30;93.80;;;;;;4208934;28;20097;-55
2023/05/26 01:07:51;;;;;;;16.60;6.55;;;15.30;93.90;;;;;;4196950;28;20044;-55
2023/05/26 01:09:55;;;;;;;17.15;7.53;;;15.30;93.90;;;;;;4200610;28;20450;-55
2023/05/26 01:12:03;;;;;;;11.48;6.45;;;15.30;94.00;;;;;;4214044;28;20079;-54
2023/05/26 01:14:10;;;;;;;17.75;7.00;;;15.20;94.20;;;;;;4195753;28;20045;-54
2023/05/26 01:16:21;;;;;;;16.25;7.05;;;15.10;94.20;;;;;;4190997;28;20480;-56
2023/05/26 01:18:31;;;;;;;22.40;8.32;;;15.20;94.20;;;;;;4196480;28;20123;-55
2023/05/26 01:20:38;;;;;;;17.08;6.95;;;15.10;94.30;;;;;;4183653;28;20041;-54
2023/05/26 01:23:05;;;;;;;20.00;7.97;;;15.10;94.40;;;;;;4184921;28;20505;-54
2023/05/26 01:25:28;;;;;;;14.95;7.60;;;15.00;94.60;;;;;;4200077;28;20040;-55
2023/05/26 01:27:44;;;;;;;18.20;8.30;;;15.00;94.70;;;;;;4211758;28;20036;-54
2023/05/26 01:29:47;;;;;;;20.25;7.93;;;14.90;94.80;;;;;;4213557;28;20067;-54
2023/05/26 01:31:50;;;;;;;20.73;8.32;;;14.90;95.00;;;;;;4182793;28;20057;-56
2023/05/26 01:33:52;;;;;;;16.15;8.75;;;14.90;94.90;;;;;;4208436;28;20040;-56
2023/05/26 01:35:56;;;;;;;19.67;8.43;;;14.90;94.80;;;;;;4201294;28;20102;-56
2023/05/26 01:38:00;;;;;;;21.67;8.25;;;14.80;95.00;;;;;;4209726;28;20045;-56
2023/05/26 01:40:03;;;;;;;16.73;7.65;;;14.80;95.00;;;;;;4216770;28;20507;-56
2023/05/26 01:42:13;;;;;;;20.27;8.95;;;14.90;95.20;;;;;;4203901;28;20459;-56
2023/05/26 01:44:33;;;;;;;;;;;14.80;95.10;;;;;;4200540;28;20060;-54
2023/05/26 01:46:41;;;;;;;16.95;8.20;;;14.80;95.20;;;;;;4204272;28;19920;-56
2023/05/26 01:48:45;;;;;;;17.05;8.07;;;14.70;95.30;;;;;;4215873;28;20051;-59
2023/05/26 01:50:54;;;;;;;19.00;8.20;;;14.80;95.30;;;;;;4215009;28;20455;-55
2023/05/26 01:52:58;;;;;;;22.05;8.02;;;14.80;95.20;;;;;;4205201;28;20047;-56
2023/05/26 01:55:07;;;;;;;19.80;8.70;;;14.80;95.20;;;;;;4216441;28;20482;-56
2023/05/26 01:57:11;;;;;;;25.80;9.68;;;14.80;95.30;;;;;;4206615;28;20426;-56
2023/05/26 01:59:14;;;;;;;21.38;7.95;;;14.60;95.30;;;;;;4212375;28;20048;-57
2023/05/26 02:01:16;;;;;;;29.40;9.15;;;14.60;95.50;;;;;;4196632;28;20040;-56
2023/05/26 02:03:21;;;;;;;28.42;8.63;;;14.70;95.40;;;;;;4204744;28;20470;-56
2023/05/26 02:05:23;;;;;;;26.05;8.25;;;14.60;95.30;;;;;;4216689;28;20379;-57
2023/05/26 02:07:25;;;;;;;23.58;8.20;;;14.60;95.40;;;;;;4208516;28;20041;-56
2023/05/26 02:09:27;;;;;;;25.45;8.32;;;14.60;95.40;;;;;;4199529;28;20136;-56
2023/05/26 02:11:29;;;;;;;26.42;8.98;;;14.60;95.50;;;;;;4207107;28;20044;-56
2023/05/26 02:13:38;;;;;;;32.72;8.85;;;14.60;95.50;;;;;;4218201;28;20381;-62
2023/05/26 02:15:40;;;;;;;21.60;8.20;;;14.50;95.50;;;;;;4218874;28;20086;-57
2023/05/26 02:17:42;;;;;;;30.00;9.98;;;14.50;95.60;;;;;;4209034;28;20124;-57
2023/05/26 02:19:48;;;;;;;28.05;9.65;;;14.50;95.50;;;;;;4211878;28;20044;-57
2023/05/26 02:21:50;;;;;;;25.15;8.18;;;14.40;95.60;;;;;;4215475;28;20048;-56
2023/05/26 02:23:52;;;;;;;23.00;8.80;;;14.40;95.70;;;;;;4204826;28;20126;-57
2023/05/26 02:25:54;;;;;;;24.73;8.52;;;14.40;95.80;;;;;;4198099;28;20123;-56
2023/05/26 02:27:56;;;;;;;27.77;8.65;;;14.40;95.80;;;;;;4208813;28;20040;-55
2023/05/26 02:29:58;;;;;;;30.63;9.35;;;14.40;95.80;;;;;;4210076;28;20142;-56
2023/05/26 02:32:00;;;;;;;33.42;9.00;;;14.30;95.80;;;;;;4215283;28;20425;-60
2023/05/26 02:34:04;;;;;;;27.30;8.27;;;14.20;95.90;;;;;;4209438;28;20501;-56
2023/05/26 02:36:08;;;;;;;25.17;9.13;;;14.10;96.10;;;;;;4216690;28;20050;-62
2023/05/26 02:38:10;;;;;;;22.88;8.27;;;14.10;96.20;;;;;;4213441;28;20130;-55
2023/05/26 02:40:12;;;;;;;39.25;10.00;;;14.10;96.10;;;;;;4205747;28;20048;-56
2023/05/26 02:42:17;;;;;;;28.33;9.13;;;14.10;96.00;;;;;;4198934;28;20053;-56
2023/05/26 02:44:20;;;;;;;27.33;8.38;;;14.00;96.30;;;;;;4214382;28;20052;-56
2023/05/26 02:46:48;;;;;;;31.27;8.88;;;14.00;96.50;;;;;;4214713;28;20051;-56
2023/05/26 02:48:50;;;;;;;33.80;9.57;;;14.00;96.30;;;;;;4207251;28;20049;-54
2023/05/26 02:50:55;;;;;;;34.50;9.00;;;13.90;96.30;;;;;;4210965;28;20135;-54
2023/05/26 02:52:59;;;;;;;25.77;8.85;;;13.90;96.80;;;;;;4216073;28;20448;-54
2023/05/26 02:55:01;;;;;;;31.73;8.95;;;13.80;96.50;;;;;;4204458;28;20389;-55
2023/05/26 02:57:05;;;;;;;32.72;9.93;;;13.80;96.70;;;;;;4215114;28;20105;-54
2023/05/26 02:59:08;;;;;;;32.72;8.45;;;13.90;96.50;;;;;;4207408;28;20124;-56
2023/05/26 03:01:10;;;;;;;25.90;8.73;;;13.90;96.50;;;;;;4210841;28;20086;-55
2023/05/26 03:03:12;;;;;;;26.35;8.65;;;13.90;96.60;;;;;;4214045;28;20053;-54
2023/05/26 03:05:15;;;;;;;32.80;8.23;;;13.90;96.60;;;;;;4203788;28;20051;-55
2023/05/26 03:07:17;;;;;;;29.50;8.80;;;13.90;96.50;;;;;;4214302;28;20044;-54
2023/05/26 03:09:20;;;;;;;29.77;8.10;;;14.00;96.60;;;;;;4208158;28;20637;-58
2023/05/26 03:11:23;;;;;;;22.02;7.15;;;14.00;96.50;;;;;;4209152;28;20130;-57
2023/05/26 03:13:25;;;;;;;29.65;7.90;;;14.00;96.50;;;;;;4214599;28;20074;-57
2023/05/26 03:15:35;;;;;;;27.98;8.73;;;14.00;96.50;;;;;;4209124;28;20044;-57
2023/05/26 03:17:37;;;;;;;31.67;9.55;;;14.00;96.50;;;;;;4197278;28;20045;-57
2023/05/26 03:19:39;;;;;;;32.33;8.73;;;14.00;96.50;;;;;;4204525;28;20069;-58
2023/05/26 03:21:41;;;;;;;25.35;7.97;;;13.90;96.70;;;;;;4204550;28;20044;-58
2023/05/26 03:23:51;;;;;;;31.35;8.88;;;13.90;96.70;;;;;;4199495;28;20130;-58
2023/05/26 03:25:55;;;;;;;29.17;8.93;;;13.90;96.40;;;;;;4194119;28;20048;-57
2023/05/26 03:27:56;;;;;;;29.55;8.85;;;14.00;96.30;;;;;;4214585;28;20040;-58
2023/05/26 03:29:58;;;;;;;28.58;8.43;;;14.00;96.40;;;;;;4208565;28;20036;-57
2023/05/26 03:32:01;;;;;;;32.10;8.98;;;13.80;96.50;;;;;;4191282;28;20157;-57
2023/05/26 03:34:03;;;;;;;27.60;8.82;;;13.80;96.50;;;;;;4209643;28;20397;-61
2023/05/26 03:36:06;;;;;;;36.42;9.15;;;13.80;96.60;;;;;;4194162;28;20044;-66
2023/05/26 03:38:08;;;;;;;34.88;9.52;;;13.80;96.70;;;;;;4214105;28;20265;-59
2023/05/26 03:40:10;;;;;;;30.75;8.57;;;13.80;96.70;;;;;;4212497;28;20455;-60
2023/05/26 03:42:14;;;;;;;33.80;9.10;;;13.90;96.90;;;;;;4207868;28;20066;-57
2023/05/26 03:44:19;;;;;;;30.27;9.15;;;13.80;96.60;;;;;;4214609;28;20044;-57
2023/05/26 03:46:21;;;;;;;37.90;9.32;;;13.80;96.70;;;;;;4202243;28;20118;-59
2023/05/26 03:48:23;;;;;;;32.10;8.98;;;13.80;96.40;;;;;;4213610;28;20105;-58
2023/05/26 03:50:25;;;;;;;32.15;10.13;;;13.70;96.60;;;;;;4210433;28;20063;-58
2023/05/26 03:52:27;;;;;;;27.33;8.60;;;13.70;96.70;;;;;;4206262;28;20036;-58
2023/05/26 03:54:30;;;;;;;34.78;9.65;;;13.70;96.70;;;;;;4214870;28;20123;-58
2023/05/26 03:56:32;;;;;;;26.08;8.00;;;13.60;96.80;;;;;;4202541;28;20131;-57
2023/05/26 03:58:35;;;;;;;29.77;8.88;;;13.60;96.90;;;;;;4212444;28;20047;-58
2023/05/26 04:00:38;;;;;;;39.55;9.55;;;13.70;96.80;;;;;;4211064;28;20083;-57
2023/05/26 04:02:40;;;;;;;30.23;9.07;;;13.70;96.70;;;;;;4204651;28;20087;-58
2023/05/26 04:04:42;;;;;;;35.00;8.82;;;13.60;96.90;;;;;;4215719;28;20476;-59
2023/05/26 04:06:48;;;;;;;30.45;9.57;;;13.80;96.90;;;;;;4202852;28;20044;-58
2023/05/26 04:08:50;;;;;;;30.73;9.40;;;13.70;96.80;;;;;;4215384;28;20071;-57
2023/05/26 04:10:52;;;;;;;28.20;8.85;;;13.70;96.60;;;;;;4213813;28;20123;-58
2023/05/26 04:12:55;;;;;;;35.50;9.23;;;13.70;96.60;;;;;;4214646;28;20470;-57
2023/05/26 04:15:01;;;;;;;28.23;8.75;;;13.80;96.50;;;;;;4214373;28;20054;-58
2023/05/26 04:17:03;;;;;;;34.00;9.52;;;13.80;96.50;;;;;;4209193;28;20486;-54
2023/05/26 04:19:05;;;;;;;32.28;8.32;;;13.80;96.40;;;;;;4198918;28;20055;-54
2023/05/26 04:21:08;;;;;;;33.67;9.57;;;13.80;96.40;;;;;;4198305;28;20036;-57
2023/05/26 04:23:10;;;;;;;39.40;9.75;;;13.80;96.30;;;;;;4208251;28;20051;-57
2023/05/26 04:25:13;;;;;;;34.30;9.43;;;13.80;96.30;;;;;;4197384;28;20090;-57
2023/05/26 04:27:15;;;;;;;28.77;8.27;;;13.80;96.50;;;;;;4206088;28;20505;-54
2023/05/26 04:29:18;;;;;;;37.35;9.05;;;13.80;96.50;;;;;;4199950;28;20052;-54
2023/05/26 04:31:22;;;;;;;40.30;9.25;;;13.80;96.50;;;;;;4198971;28;20040;-55
2023/05/26 04:33:25;;;;;;;31.40;9.32;;;13.80;96.30;;;;;;4202146;28;20048;-55
2023/05/26 04:35:27;;;;;;;36.42;9.70;;;13.80;96.40;;;;;;4198924;28;20040;-55
2023/05/26 04:37:33;;;;;;;30.60;8.13;;;13.70;96.50;;;;;;4205263;28;20501;-54
2023/05/26 04:39:35;;;;;;;36.05;8.48;;;13.70;96.60;;;;;;4211263;28;20055;-55
2023/05/26 04:41:38;;;;;;;30.92;9.32;;;13.70;96.40;;;;;;4211859;28;20143;-54
2023/05/26 04:43:40;;;;;;;38.78;9.65;;;13.60;96.70;;;;;;4202175;28;20119;-55
2023/05/26 04:45:43;;;;;;;37.30;10.27;;;13.60;96.60;;;;;;4214200;28;20417;-54
2023/05/26 04:47:49;;;;;;;35.53;9.70;;;13.60;96.60;;;;;;4209563;28;20048;-55
2023/05/26 04:49:51;;;;;;;32.40;9.10;;;13.60;96.80;;;;;;4202415;28;20538;-55
2023/05/26 04:51:56;;;;;;;32.65;9.50;;;13.60;96.70;;;;;;4199438;28;20048;-55
2023/05/26 04:53:58;;;;;;;27.27;8.77;;;13.60;96.70;;;;;;4202818;28;20123;-55
2023/05/26 04:56:01;;;;;;;36.33;9.55;;;13.50;96.90;;;;;;4214019;28;20074;-55
2023/05/26 04:58:06;;;;;;;37.88;10.63;;;13.60;96.80;;;;;;4204494;28;20044;-54
2023/05/26 05:00:10;;;;;;;32.08;9.10;;;13.70;96.70;;;;;;4209364;28;20133;-55
2023/05/26 05:02:12;;;;;;;40.05;11.27;;;13.70;96.60;;;;;;4212092;28;20128;-57
2023/05/26 05:04:16;;;;;;;32.92;10.15;;;13.70;96.60;;;;;;4202151;28;20040;-57
2023/05/26 05:06:19;;;;;;;31.25;9.30;;;13.60;96.60;;;;;;4213785;28;20456;-54
2023/05/26 05:08:21;;;;;;;39.75;9.60;;;13.70;96.50;;;;;;4205144;28;20040;-55
2023/05/26 05:10:26;;;;;;;35.75;9.02;;;13.70;96.70;;;;;;4207571;28;20340;-54
2023/05/26 05:12:28;;;;;;;28.13;9.52;;;13.70;96.50;;;;;;4211677;28;20115;-54
2023/05/26 05:14:30;;;;;;;33.50;9.30;;;13.70;96.50;;;;;;4208186;28;20414;-55
2023/05/26 05:16:33;;;;;;;30.23;9.18;;;13.70;96.60;;;;;;4197124;28;20062;-53
2023/05/26 05:18:35;;;;;;;33.70;10.07;;;13.70;96.50;;;;;;4201579;28;20093;-57
2023/05/26 05:20:38;;;;;;;27.77;8.70;;;13.70;96.30;;;;;;4202440;28;20095;-57
2023/05/26 05:22:41;;;;;;;47.15;10.18;;;13.70;96.50;;;;;;4197314;28;20040;-57
2023/05/26 05:24:43;;;;;;;45.88;9.63;;;13.60;96.50;;;;;;4207843;28;20051;-58
2023/05/26 05:26:45;;;;;;;66.05;12.05;;;13.70;96.60;;;;;;4205811;28;20055;-57
2023/05/26 05:28:47;;;;;;;36.55;10.82;;;13.80;96.40;;;;;;4207784;28;20052;-57
2023/05/26 05:30:49;;;;;;;39.72;10.23;;;13.80;96.30;;;;;;4204159;28;20128;-57
2023/05/26 05:32:52;;;;;;;42.85;10.35;;;13.80;96.30;;;;;;4196840;28;20501;-54
2023/05/26 05:34:55;;;;;;;35.08;8.43;;;13.80;96.20;;;;;;4210560;28;20048;-55
2023/05/26 05:36:58;;;;;;;41.00;9.98;;;13.80;96.30;;;;;;4196700;28;20040;-59
2023/05/26 05:39:00;;;;;;;38.60;10.07;;;13.90;96.20;;;;;;4205420;28;20455;-55
2023/05/26 05:41:03;;;;;;;33.67;9.90;;;14.00;96.20;;;;;;4213368;28;20044;-55
2023/05/26 05:43:05;;;;;;;41.40;9.75;;;13.80;96.30;;;;;;4213472;28;20044;-54
2023/05/26 05:45:09;;;;;;;37.85;9.63;;;13.80;96.40;;;;;;4201717;28;20044;-55
2023/05/26 05:47:11;;;;;;;33.47;11.07;;;13.80;96.30;;;;;;4194612;28;20045;-54
2023/05/26 05:49:13;;;;;;;37.17;10.85;;;13.80;96.40;;;;;;4211768;28;20456;-56
2023/05/26 05:51:16;;;;;;;43.45;10.35;;;13.90;96.20;;;;;;4206492;28;20474;-57
2023/05/26 05:53:20;;;;;;;45.22;9.85;;;13.90;96.00;;;;;;4197309;28;20059;-57
2023/05/26 05:55:22;;;;;;;40.75;10.35;;;14.00;96.00;;;;;;4212587;28;20033;-57
2023/05/26 05:57:24;;;;;;;52.28;11.45;;;13.90;96.00;;;;;;4213853;28;20142;-57
2023/05/26 05:59:26;;;;;;;42.28;10.23;;;14.00;96.00;;;;;;4213065;28;20070;-60
2023/05/26 06:01:28;;;;;;;36.00;9.75;;;14.00;96.00;;;;;;4203042;28;20040;-59
2023/05/26 06:03:30;;;;;;;45.65;10.35;;;14.00;95.90;;;;;;4213060;28;20045;-57
2023/05/26 06:05:32;;;;;;;47.00;10.93;;;14.00;95.90;;;;;;4201536;28;20406;-58
2023/05/26 06:07:34;;;;;;;36.75;9.50;;;14.10;95.90;;;;;;4195942;28;20109;-61
2023/05/26 06:09:38;;;;;;;45.83;11.35;;;14.10;96.00;;;;;;4179621;28;20517;-56
2023/05/26 06:11:40;;;;;;;35.60;10.45;;;14.00;95.90;;;;;;4204104;28;20072;-57
2023/05/26 06:13:42;;;;;;;46.33;10.82;;;14.10;95.90;;;;;;4213666;28;20052;-57
2023/05/26 06:15:44;;;;;;;33.50;10.52;;;14.20;95.80;;;;;;4202001;28;20136;-58
2023/05/26 06:17:48;;;;;;;48.78;11.20;;;14.20;95.70;;;;;;4191701;28;20045;-64
2023/05/26 06:19:53;;;;;;;39.50;9.32;;;14.00;95.80;;;;;;4209442;28;20041;-57
2023/05/26 06:21:56;;;;;;;39.65;10.32;;;14.00;95.90;;;;;;4213269;28;20135;-57
2023/05/26 06:23:58;;;;;;;33.88;9.65;;;14.10;95.90;;;;;;4215134;28;20044;-58
2023/05/26 06:26:02;;;;;;;37.10;9.38;;;14.30;95.70;;;;;;4211740;28;20035;-58
2023/05/26 06:28:04;;;;;;;32.67;10.17;;;14.20;95.60;;;;;;4215266;28;20040;-57
2023/05/26 06:30:07;;;;;;;35.63;10.25;;;14.00;95.80;;;;;;4214512;28;20534;-57
2023/05/26 06:32:09;;;;;;;49.20;10.02;;;13.90;96.10;;;;;;4213436;28;20045;-57
2023/05/26 06:34:11;;;;;;;39.80;10.77;;;14.00;96.00;;;;;;4209197;28;20409;-56
2023/05/26 06:36:14;;;;;;;40.30;11.20;;;14.10;96.00;;;;;;4213972;28;20119;-54
2023/05/26 06:38:16;;;;;;;35.90;9.80;;;14.10;95.90;;;;;;4210883;28;20489;-56
2023/05/26 06:40:18;;;;;;;42.80;10.57;;;14.10;95.90;;;;;;4214529;28;20054;-57
2023/05/26 06:42:21;;;;;;;46.03;10.07;;;14.20;95.80;;;;;;4210509;28;20062;-55
2023/05/26 06:44:24;;;;;;;40.20;9.20;;;14.30;95.60;;;;;;4199594;28;20048;-54
2023/05/26 06:46:26;;;;;;;40.55;10.45;;;14.40;95.60;;;;;;4204735;28;20055;-55
2023/05/26 06:48:28;;;;;;;37.38;9.82;;;14.40;95.40;;;;;;4187093;28;20091;-53
2023/05/26 06:50:33;;;;;;;39.47;10.00;;;14.40;95.40;;;;;;4201367;28;20144;-53
2023/05/26 06:52:35;;;;;;;39.38;9.43;;;14.50;95.40;;;;;;4210241;28;20105;-55
2023/05/26 06:54:39;;;;;;;33.45;10.43;;;14.60;95.30;;;;;;4200506;28;20451;-54
2023/05/26 06:56:41;;;;;;;42.47;10.18;;;14.60;95.30;;;;;;4200820;28;20039;-54
2023/05/26 06:58:46;;;;;;;39.40;9.57;;;14.80;95.20;;;;;;4209218;28;20048;-54
2023/05/26 07:00:58;;;;;;;34.15;8.38;;;14.80;95.00;;;;;;4215342;28;20040;-55
2023/05/26 07:03:02;;;;;;;40.83;10.20;;;15.20;94.80;;;;;;4211091;28;20048;-55
2023/05/26 07:05:05;;;;;;;35.50;9.68;;;15.50;94.50;;;;;;4215114;28;20375;-54
2023/05/26 07:07:08;;;;;;;29.45;9.43;;;15.40;94.20;;;;;;4212338;28;20040;-54
2023/05/26 07:09:10;;;;;;;36.35;10.07;;;15.40;94.30;;;;;;4204235;28;20144;-54
2023/05/26 07:11:12;;;;;;;43.03;10.85;;;15.40;94.40;;;;;;4198886;28;20078;-53
2023/05/26 07:13:15;;;;;;;41.38;9.68;;;15.60;94.10;;;;;;4214405;28;20050;-54
2023/05/26 07:15:18;;;;;;;45.25;10.82;;;15.70;94.00;;;;;;4200108;28;20139;-54
2023/05/26 07:17:20;;;;;;;60.55;11.65;;;16.00;93.60;;;;;;4203712;28;20529;-54
2023/05/26 07:19:23;;;;;;;41.95;10.15;;;16.10;93.40;;;;;;4188089;28;20533;-53
2023/05/26 07:21:25;;;;;;;42.63;9.60;;;16.20;93.40;;;;;;4215827;28;20478;-54
2023/05/26 07:23:27;;;;;;;34.20;10.43;;;16.50;93.00;;;;;;4205907;28;20070;-53
2023/05/26 07:25:31;;;;;;;36.65;9.02;;;16.60;92.60;;;;;;4198914;28;20048;-54
2023/05/26 07:27:33;;;;;;;43.83;9.70;;;16.80;92.50;;;;;;4210088;28;20058;-55
2023/05/26 07:29:37;;;;;;;27.90;9.40;;;16.80;92.40;;;;;;4207973;28;20491;-53
2023/05/26 07:31:40;;;;;;;39.25;9.45;;;16.70;92.60;;;;;;4199528;28;20040;-55
2023/05/26 07:33:43;;;;;;;33.97;9.23;;;16.90;92.30;;;;;;4206289;28;20054;-54
2023/05/26 07:35:45;;;;;;;34.80;9.32;;;16.90;92.10;;;;;;4214318;28;20055;-55
2023/05/26 07:37:48;;;;;;;39.60;9.82;;;16.90;91.90;;;;;;4211823;28;20048;-54
2023/05/26 07:39:50;;;;;;;31.35;9.90;;;17.00;92.10;;;;;;4204697;28;20105;-54
2023/05/26 07:41:52;;;;;;;32.97;9.90;;;17.00;92.10;;;;;;4214895;28;20052;-55
2023/05/26 07:43:54;;;;;;;36.97;9.80;;;17.00;92.00;;;;;;4204279;28;20044;-53
2023/05/26 07:45:57;;;;;;;40.17;9.50;;;17.00;92.00;;;;;;4213351;28;20044;-59
2023/05/26 07:48:10;;;;;;;31.65;9.40;;;17.10;91.70;;;;;;4215627;28;20067;-61
2023/05/26 07:50:13;;;;;;;37.20;10.10;;;17.00;91.70;;;;;;4191236;28;20044;-59
2023/05/26 07:52:17;;;;;;;40.30;9.50;;;16.90;92.00;;;;;;4209541;28;20441;-61
2023/05/26 07:54:19;;;;;;;31.83;9.32;;;16.90;92.00;;;;;;4210417;28;20056;-54
2023/05/26 07:56:21;;;;;;;40.75;10.10;;;17.00;91.80;;;;;;4203998;28;20044;-56
2023/05/26 07:58:23;;;;;;;31.90;9.68;;;17.00;92.10;;;;;;4207909;28;20489;-54
2023/05/26 08:00:28;;;;;;;27.38;8.68;;;17.00;92.10;;;;;;4208204;28;20040;-54
2023/05/26 08:02:31;;;;;;;29.35;8.23;;;17.00;92.20;;;;;;4179678;28;20059;-53
2023/05/26 08:04:35;;;;;;;45.22;10.30;;;17.30;92.10;;;;;;4207384;28;20466;-53
2023/05/26 08:06:38;;;;;;;37.42;9.20;;;17.50;91.60;;;;;;4205897;28;20055;-56
2023/05/26 08:08:40;;;;;;;29.98;8.52;;;17.60;91.30;;;;;;4207570;28;20071;-57
2023/05/26 08:10:42;;;;;;;44.42;10.15;;;17.60;91.30;;;;;;4212370;28;20044;-57
2023/05/26 08:12:44;;;;;;;40.05;10.48;;;17.80;91.20;;;;;;4209567;28;20043;-57
2023/05/26 08:14:49;;;;;;;40.70;11.20;;;17.50;91.60;;;;;;4210015;28;20071;-51
2023/05/26 08:16:51;;;;;;;36.22;9.75;;;17.40;93.10;;;;;;4213703;28;20100;-60
2023/05/26 08:18:53;;;;;;;33.40;10.38;;;17.20;92.80;;;;;;4210024;28;20040;-55
2023/05/26 08:20:57;;;;;;;32.85;9.85;;;17.30;92.10;;;;;;4208715;28;20040;-55
2023/05/26 08:22:59;;;;;;;30.58;9.80;;;17.40;93.00;;;;;;4197900;28;20044;-52
2023/05/26 08:25:01;;;;;;;29.60;9.20;;;17.40;92.90;;;;;;4205292;28;20075;-54
2023/05/26 08:27:05;;;;;;;31.75;9.77;;;17.30;92.10;;;;;;4214874;28;20047;-55
2023/05/26 08:29:09;;;;;;;32.97;10.15;;;17.30;92.10;;;;;;4215569;28;20052;-57
2023/05/26 08:31:12;;;;;;;34.13;10.05;;;17.10;92.10;;;;;;4213805;28;20119;-56
2023/05/26 08:33:14;;;;;;;31.52;9.73;;;17.20;92.20;;;;;;4215369;28;20043;-57
2023/05/26 08:35:16;;;;;;;41.10;10.38;;;17.30;92.20;;;;;;4202828;28;20041;-57
2023/05/26 08:37:20;;;;;;;36.58;10.23;;;17.30;92.20;;;;;;4208849;28;20136;-57
2023/05/26 08:39:22;;;;;;;51.92;10.48;;;17.30;91.80;;;;;;4200354;28;20049;-57
2023/05/26 08:41:28;;;;;;;36.85;9.93;;;17.50;92.40;;;;;;4211007;28;20139;-62
2023/05/26 08:43:42;;;;;;;44.53;10.00;;;17.60;92.00;;;;;;4197889;28;20052;-56
2023/05/26 08:45:51;;;;;;;33.95;9.10;;;17.70;91.90;;;;;;4206527;28;20055;-57
2023/05/26 08:47:59;;;;;;;38.97;9.30;;;17.80;91.60;;;;;;4199217;28;20122;-57
2023/05/26 08:50:04;;;;;;;30.10;9.93;;;17.80;91.60;;;;;;4196804;28;20045;-57
2023/05/26 08:52:09;;;;;;;29.40;9.27;;;17.90;91.40;;;;;;4202561;28;20051;-54
2023/05/26 08:54:13;;;;;;;32.05;9.98;;;17.80;90.70;;;;;;4207221;28;20143;-51
2023/05/26 08:56:16;;;;;;;29.27;9.18;;;17.80;91.10;;;;;;4209024;28;20044;-52
2023/05/26 08:58:19;;;;;;;40.85;9.68;;;17.90;91.00;;;;;;4212115;28;20474;-55
2023/05/26 09:00:22;;;;;;;30.38;8.98;;;18.00;91.20;;;;;;4209635;28;20061;-52
2023/05/26 09:02:26;;;;;;;36.38;9.15;;;18.10;90.90;;;;;;4202155;28;20048;-55
2023/05/26 09:04:29;;;;;;;25.15;8.52;;;18.00;90.90;;;;;;4192431;28;20059;-55
2023/05/26 09:06:33;;;;;;;27.83;7.97;;;18.20;90.90;;;;;;4205059;28;20040;-56
2023/05/26 09:08:35;;;;;;;51.58;10.60;;;18.20;90.40;;;;;;4209365;28;20055;-52
2023/05/26 09:10:39;;;;;;;35.25;8.60;;;18.30;90.60;;;;;;4210108;28;20123;-52
2023/05/26 09:12:41;;;;;;;37.00;8.45;;;18.30;90.70;;;;;;4208369;28;20264;-55
2023/05/26 09:14:43;;;;;;;25.27;8.23;;;18.40;90.80;;;;;;4197417;28;20051;-53
2023/05/26 09:16:45;;;;;;;31.85;8.20;;;18.50;90.10;;;;;;4196322;28;20041;-53
2023/05/26 09:18:47;;;;;;;31.92;8.18;;;18.50;90.00;;;;;;4207385;28;20052;-55
2023/05/26 09:20:50;;;;;;;34.42;9.07;;;18.60;89.90;;;;;;4213573;28;20044;-53
2023/05/26 09:22:55;;;;;;;28.38;8.13;;;18.40;90.00;;;;;;4213398;28;20051;-55
2023/05/26 09:24:57;;;;;;;28.30;8.68;;;18.40;89.90;;;;;;4213561;28;20044;-55
2023/05/26 09:27:01;;;;;;;30.48;8.70;;;18.40;90.20;;;;;;4201699;28;20041;-55
2023/05/26 09:29:05;;;;;;;33.28;8.73;;;18.50;90.30;;;;;;4195983;28;20068;-56
2023/05/26 09:31:10;;;;;;;32.87;8.33;;;18.60;90.60;;;;;;4196706;28;20044;-55
2023/05/26 09:33:13;;;;;;;;;;;18.60;90.10;;;;;;4197205;28;20426;-55
2023/05/26 09:35:15;;;;;;;38.72;8.93;;;18.60;90.30;;;;;;4215171;28;20385;-56
2023/05/26 09:37:18;;;;;;;29.83;9.20;;;18.80;90.10;;;;;;4214960;28;20056;-52
2023/05/26 09:39:20;;;;;;;23.33;8.02;;;18.70;89.90;;;;;;4213646;28;20075;-54
2023/05/26 09:41:35;;;;;;;29.67;8.63;;;18.60;88.80;;;;;;4214090;28;20052;-52
2023/05/26 09:43:39;;;;;;;27.75;9.32;;;18.60;89.40;;;;;;4205594;28;20072;-55
2023/05/26 09:45:41;;;;;;;27.50;8.82;;;18.60;89.80;;;;;;4208112;28;20048;-61
2023/05/26 09:47:43;;;;;;;28.70;8.50;;;18.60;89.80;;;;;;4212399;28;20089;-56
2023/05/26 09:49:45;;;;;;;31.08;8.00;;;18.80;90.00;;;;;;4212151;28;20044;-54
2023/05/26 09:51:49;;;;;;;38.05;8.98;;;18.80;89.20;;;;;;4208707;28;20055;-53
2023/05/26 09:54:12;;;;;;;26.55;8.88;;;19.00;89.40;;;;;;4210496;28;20044;-53
2023/05/26 09:56:18;;;;;;;28.80;7.57;;;19.10;89.00;;;;;;4195501;28;20458;-53
2023/05/26 09:58:31;;;;;;;25.10;9.40;;;19.30;88.60;;;;;;4212513;28;20094;-55
2023/05/26 10:00:35;;;;;;;26.23;9.10;;;19.50;89.30;;;;;;4216499;28;20404;-55
2023/05/26 10:02:40;;;;;;;27.65;8.90;;;19.60;89.00;;;;;;4212367;28;20102;-54
2023/05/26 10:04:42;;;;;;;25.70;9.65;;;19.70;89.20;;;;;;4216087;28;20497;-59
2023/05/26 10:06:48;;;;;;;29.27;8.30;;;19.90;89.20;;;;;;4213249;28;20040;-56
2023/05/26 10:08:56;;;;;;;29.35;8.50;;;20.00;89.40;;;;;;4215303;28;20044;-55
2023/05/26 10:10:59;;;;;;;25.20;9.27;;;20.20;88.30;;;;;;4211793;28;20051;-55
2023/05/26 10:13:02;;;;;;;22.17;8.02;;;20.30;87.90;;;;;;4214371;28;20064;-56
2023/05/26 10:15:04;;;;;;;27.50;8.82;;;20.10;87.50;;;;;;4214672;28;20556;-55
2023/05/26 10:17:09;;;;;;;26.98;8.25;;;20.00;87.90;;;;;;4214428;28;20531;-53
2023/05/26 10:19:11;;;;;;;29.00;8.80;;;20.00;87.70;;;;;;4214830;28;20497;-55
2023/05/26 10:21:16;;;;;;;32.78;9.82;;;20.00;87.80;;;;;;4211763;28;20458;-54
2023/05/26 10:23:24;;;;;;;26.73;7.88;;;20.10;87.60;;;;;;4212950;28;20478;-56
2023/05/26 10:25:31;;;;;;;32.47;8.38;;;20.20;87.60;;;;;;4214838;28;20392;-52
2023/05/26 10:27:41;;;;;;;26.63;8.32;;;20.40;87.70;;;;;;4205037;28;20036;-52
2023/05/26 10:29:48;;;;;;;25.17;8.85;;;20.30;86.90;;;;;;4212344;28;20040;-52
2023/05/26 10:31:52;;;;;;;26.85;9.48;;;20.50;87.30;;;;;;4215780;28;20048;-54
2023/05/26 10:33:56;;;;;;;24.92;8.23;;;20.40;87.10;;;;;;4215783;28;20041;-54